CJT921 MKJP-MDSD
Flight info
| Callsign | CJT921 |
|---|---|
| Flight time | N/A |
| Altitude | 35000 |
| Route | AMEKO2 AMEKO DCT NOSIS UL349 DCR DCT OKOSO OKOSO4G |
| Aircraft | B763/H-SDE3FGHIM3RWXY/LB1 |
Departure
| Time | 2026-04-28 17:22 |
|---|---|
| Airport | Norman Manley International Airport (MKJP) |
Arrival
| Time | N/A |
|---|---|
| Airport | Las Américas International Airport (MDSD) |
| Time | Latitude | Longitude | Altitude | Speed | Heading |
|---|---|---|---|---|---|
| 2026-04-28 16:56 | 17.93626 | -76.77831 | 39 ft | 0 kts | 110° |
| 2026-04-28 17:12 | 17.93628 | -76.77838 | 39 ft | 2 kts | 111° |
| 2026-04-28 17:12 | 17.93636 | -76.77851 | 39 ft | 2 kts | 138° |
| 2026-04-28 17:12 | 17.93649 | -76.77860 | 39 ft | 2 kts | 158° |
| 2026-04-28 17:12 | 17.93663 | -76.77864 | 39 ft | 2 kts | 178° |
| 2026-04-28 17:13 | 17.93676 | -76.77863 | 39 ft | 0 kts | 196° |
| 2026-04-28 17:13 | 17.93682 | -76.77860 | 39 ft | 1 kts | 199° |
| 2026-04-28 17:13 | 17.93683 | -76.77860 | 39 ft | 0 kts | 199° |
| 2026-04-28 17:16 | 17.93673 | -76.77864 | 39 ft | 5 kts | 200° |
| 2026-04-28 17:16 | 17.93617 | -76.77885 | 38 ft | 11 kts | 200° |
| 2026-04-28 17:17 | 17.93522 | -76.77921 | 37 ft | 17 kts | 200° |
| 2026-04-28 17:17 | 17.93440 | -76.78002 | 36 ft | 19 kts | 282° |
| 2026-04-28 17:17 | 17.93496 | -76.78148 | 36 ft | 23 kts | 291° |
| 2026-04-28 17:17 | 17.93559 | -76.78313 | 34 ft | 25 kts | 292° |
| 2026-04-28 17:18 | 17.93629 | -76.78494 | 34 ft | 26 kts | 291° |
| 2026-04-28 17:18 | 17.93702 | -76.78674 | 35 ft | 27 kts | 290° |
| 2026-04-28 17:18 | 17.93772 | -76.78864 | 35 ft | 28 kts | 290° |
| 2026-04-28 17:18 | 17.93844 | -76.79060 | 35 ft | 29 kts | 293° |
| 2026-04-28 17:19 | 17.93924 | -76.79257 | 35 ft | 30 kts | 292° |
| 2026-04-28 17:19 | 17.94003 | -76.79459 | 35 ft | 23 kts | 291° |
| 2026-04-28 17:19 | 17.94044 | -76.79563 | 35 ft | 14 kts | 291° |
| 2026-04-28 17:19 | 17.94081 | -76.79663 | 35 ft | 14 kts | 289° |
| 2026-04-28 17:20 | 17.94100 | -76.79771 | 34 ft | 15 kts | 279° |
| 2026-04-28 17:20 | 17.94110 | -76.79833 | 33 ft | 12 kts | 278° |
| 2026-04-28 17:20 | 17.94057 | -76.79916 | 33 ft | 10 kts | 201° |
| 2026-04-28 17:20 | 17.94012 | -76.79899 | 34 ft | 6 kts | 117° |
| 2026-04-28 17:21 | 17.94004 | -76.79881 | 34 ft | 0 kts | 113° |
| 2026-04-28 17:21 | 17.93977 | -76.79815 | 35 ft | 31 kts | 111° |
| 2026-04-28 17:21 | 17.93825 | -76.79418 | 36 ft | 85 kts | 112° |
| 2026-04-28 17:22 | 17.93144 | -76.77666 | 69 ft | 165 kts | 113° |
| 2026-04-28 17:22 | 17.92688 | -76.76531 | 381 ft | 172 kts | 114° |
| 2026-04-28 17:22 | 17.92130 | -76.75443 | 908 ft | 169 kts | 122° |
| 2026-04-28 17:23 | 17.90796 | -76.73303 | 1602 ft | 184 kts | 121° |
| 2026-04-28 17:23 | 17.90131 | -76.72128 | 1958 ft | 198 kts | 117° |
| 2026-04-28 17:23 | 17.89442 | -76.70810 | 2335 ft | 213 kts | 116° |
| 2026-04-28 17:23 | 17.88712 | -76.69331 | 2508 ft | 243 kts | 116° |
| 2026-04-28 17:24 | 17.87900 | -76.67713 | 3131 ft | 253 kts | 116° |
| 2026-04-28 17:24 | 17.87068 | -76.66057 | 3779 ft | 263 kts | 116° |
| 2026-04-28 17:24 | 17.86225 | -76.64363 | 4618 ft | 264 kts | 116° |
| 2026-04-28 17:24 | 17.85378 | -76.62650 | 5319 ft | 270 kts | 115° |
| 2026-04-28 17:25 | 17.84532 | -76.60941 | 6199 ft | 269 kts | 115° |
| 2026-04-28 17:25 | 17.82769 | -76.57393 | 7693 ft | 279 kts | 116° |
| 2026-04-28 17:25 | 17.81894 | -76.55599 | 8467 ft | 280 kts | 111° |
| 2026-04-28 17:26 | 17.81493 | -76.53606 | 9118 ft | 287 kts | 92° |
| 2026-04-28 17:26 | 17.81459 | -76.51482 | 9862 ft | 290 kts | 90° |
| 2026-04-28 17:26 | 17.81462 | -76.49383 | 10466 ft | 298 kts | 90° |
| 2026-04-28 17:26 | 17.81485 | -76.47131 | 10830 ft | 317 kts | 89° |
| 2026-04-28 17:27 | 17.81523 | -76.44770 | 11183 ft | 335 kts | 89° |
| 2026-04-28 17:27 | 17.81569 | -76.42265 | 11741 ft | 347 kts | 89° |
| 2026-04-28 17:27 | 17.81618 | -76.39739 | 12511 ft | 351 kts | 89° |
| 2026-04-28 17:27 | 17.81666 | -76.37337 | 13189 ft | 355 kts | 89° |
| 2026-04-28 17:28 | 17.81717 | -76.34747 | 13841 ft | 360 kts | 90° |
| 2026-04-28 17:28 | 17.81823 | -76.29452 | 15116 ft | 370 kts | 89° |
| 2026-04-28 17:28 | 17.81877 | -76.26738 | 15741 ft | 375 kts | 89° |
| 2026-04-28 17:29 | 17.81932 | -76.23972 | 16318 ft | 381 kts | 89° |
| 2026-04-28 17:29 | 17.81987 | -76.21192 | 16944 ft | 384 kts | 89° |
| 2026-04-28 17:29 | 17.82042 | -76.18417 | 17488 ft | 389 kts | 89° |
| 2026-04-28 17:30 | 17.82153 | -76.12695 | 18626 ft | 397 kts | 89° |
| 2026-04-28 17:30 | 17.82266 | -76.06819 | 19710 ft | 406 kts | 89° |
| 2026-04-28 17:30 | 17.82321 | -76.03861 | 20224 ft | 410 kts | 89° |
| 2026-04-28 17:31 | 17.82377 | -76.00880 | 20711 ft | 415 kts | 89° |
| 2026-04-28 17:31 | 17.82489 | -75.94788 | 21683 ft | 423 kts | 90° |
| 2026-04-28 17:32 | 17.82564 | -75.90687 | 22297 ft | 428 kts | 90° |
| 2026-04-28 17:32 | 17.82588 | -75.89353 | 22498 ft | 430 kts | 90° |
| 2026-04-28 17:32 | 17.82645 | -75.86191 | 22934 ft | 434 kts | 90° |
| 2026-04-28 17:32 | 17.82701 | -75.83015 | 23406 ft | 439 kts | 90° |
| 2026-04-28 17:33 | 17.82758 | -75.79822 | 23915 ft | 444 kts | 90° |
| 2026-04-28 17:33 | 17.82815 | -75.76559 | 24427 ft | 449 kts | 90° |
| 2026-04-28 17:33 | 17.82871 | -75.73289 | 24888 ft | 454 kts | 91° |
| 2026-04-28 17:33 | 17.82890 | -75.72171 | 25029 ft | 456 kts | 91° |
| 2026-04-28 17:34 | 17.82984 | -75.66617 | 25788 ft | 464 kts | 91° |
| 2026-04-28 17:34 | 17.83042 | -75.63204 | 26248 ft | 469 kts | 91° |
| 2026-04-28 17:34 | 17.83099 | -75.59753 | 26684 ft | 473 kts | 91° |
| 2026-04-28 17:34 | 17.83156 | -75.56316 | 27094 ft | 478 kts | 91° |
| 2026-04-28 17:35 | 17.83213 | -75.52792 | 27522 ft | 482 kts | 91° |
| 2026-04-28 17:35 | 17.83269 | -75.49274 | 27915 ft | 487 kts | 92° |
| 2026-04-28 17:35 | 17.83326 | -75.45716 | 28290 ft | 492 kts | 92° |
| 2026-04-28 17:35 | 17.83382 | -75.42125 | 28669 ft | 496 kts | 92° |
| 2026-04-28 17:36 | 17.83439 | -75.38473 | 29086 ft | 499 kts | 92° |
| 2026-04-28 17:36 | 17.83495 | -75.34772 | 29554 ft | 502 kts | 92° |
| 2026-04-28 17:36 | 17.83550 | -75.31133 | 29979 ft | 504 kts | 92° |
| 2026-04-28 17:36 | 17.83605 | -75.27406 | 30378 ft | 507 kts | 92° |
| 2026-04-28 17:37 | 17.83660 | -75.23667 | 30876 ft | 508 kts | 92° |
| 2026-04-28 17:37 | 17.83715 | -75.19987 | 31470 ft | 506 kts | 92° |
| 2026-04-28 17:37 | 17.83769 | -75.16258 | 32063 ft | 503 kts | 91° |
| 2026-04-28 17:37 | 17.83821 | -75.12604 | 32628 ft | 501 kts | 91° |
| 2026-04-28 17:38 | 17.83872 | -75.08938 | 33133 ft | 501 kts | 91° |
| 2026-04-28 17:38 | 17.83924 | -75.05239 | 33731 ft | 498 kts | 91° |
| 2026-04-28 17:38 | 17.83973 | -75.01596 | 34238 ft | 497 kts | 91° |
| 2026-04-28 17:38 | 17.84022 | -74.97978 | 34737 ft | 496 kts | 91° |
| 2026-04-28 17:39 | 17.84070 | -74.94355 | 35035 ft | 494 kts | 91° |
| 2026-04-28 17:39 | 17.84118 | -74.90756 | 34994 ft | 491 kts | 91° |
| 2026-04-28 17:40 | 17.84254 | -74.80008 | 35011 ft | 492 kts | 91° |
| 2026-04-28 17:40 | 17.84343 | -74.72779 | 35011 ft | 493 kts | 91° |
| 2026-04-28 17:41 | 17.84429 | -74.65602 | 35009 ft | 491 kts | 91° |
| 2026-04-28 17:41 | 17.84511 | -74.58400 | 35013 ft | 492 kts | 91° |
| 2026-04-28 17:42 | 17.84592 | -74.51236 | 35015 ft | 492 kts | 91° |
| 2026-04-28 17:42 | 17.84669 | -74.44083 | 35021 ft | 493 kts | 91° |
| 2026-04-28 17:43 | 17.84744 | -74.36924 | 35015 ft | 492 kts | 91° |
| 2026-04-28 17:43 | 17.84817 | -74.29671 | 35003 ft | 492 kts | 92° |
| 2026-04-28 17:44 | 17.84887 | -74.22499 | 35006 ft | 492 kts | 92° |
| 2026-04-28 17:44 | 17.84953 | -74.15359 | 35002 ft | 492 kts | 92° |
| 2026-04-28 17:45 | 17.85177 | -74.08145 | 35008 ft | 493 kts | 90° |
| 2026-04-28 17:45 | 17.85459 | -74.00980 | 35009 ft | 494 kts | 90° |
| 2026-04-28 17:46 | 17.85737 | -73.93782 | 35005 ft | 494 kts | 90° |
| 2026-04-28 17:46 | 17.86009 | -73.86617 | 35010 ft | 496 kts | 90° |
| 2026-04-28 17:47 | 17.86056 | -73.85382 | 35010 ft | 496 kts | 90° |